Latest Weather Observations for South Channel Island

IDV60801

Issued at 3:35 pm EDT Saturday 29 November 2014 (issued every 30 minutes, with the page automatically refreshed every 10 minutes)

About weather observations | Map of weather stations | Latest weather observations for VIC | Other Formats
Station Details ID: 086344 Name: SOUTH CHANNEL ISLAND Lat: -38.31 Lon: 144.80 Height: 9.0 m
Data from the previous 72 hours. | See also: Recent months for locations in Victoria
Date/Time
EDT
Temp
°C
App
Temp
°C
Dew
Point
Rel
Hum
%
Delta-T
°C
Wind Press
QNH
hPa
Press
MSL
hPa
Rain
since 9 am
mm
Dir
 
Spd
km/h
Gust
km/h
Spd
kts
Gust
kts
29/03:30pm - - - - - WSW 11 13 6 7 - - -
29/03:00pm - - - - - WSW 17 17 9 9 - - -
29/02:30pm - - - - - SSW 20 22 11 12 - - -
29/02:00pm - - - - - WSW 13 13 7 7 - - -
29/01:30pm - - - - - W 13 15 7 8 - - -
29/01:00pm - - - - - W 13 15 7 8 - - -
29/12:30pm - - - - - W 11 13 6 7 - - -
29/12:00pm - - - - - WNW 7 11 4 6 - - -
29/11:30am - - - - - W 7 7 4 4 - - -
29/11:00am - - - - - ENE 2 6 1 3 - - -
29/10:30am - - - - - ESE 7 9 4 5 - - -
29/10:00am - - - - - E 7 11 4 6 - - -
29/09:30am - - - - - E 9 13 5 7 - - -
29/09:00am - - - - - E 11 13 6 7 - - -
29/08:30am - - - - - ENE 19 24 10 13 - - -
29/08:00am - - - - - E 11 15 6 8 - - -
29/07:30am - - - - - ESE 17 20 9 11 - - -
29/07:00am - - - - - SSE 19 24 10 13 - - -
29/06:30am - - - - - SSE 20 26 11 14 - - -
29/06:00am - - - - - SSE 19 22 10 12 - - -
29/05:30am - - - - - SSE 20 26 11 14 - - -
29/05:00am - - - - - S 24 28 13 15 - - -
29/04:30am - - - - - S 24 28 13 15 - - -
29/04:00am - - - - - S 24 30 13 16 - - -
29/03:30am - - - - - S 26 30 14 16 - - -
29/03:00am - - - - - S 24 28 13 15 - - -
29/02:30am - - - - - S 26 28 14 15 - - -
29/02:00am - - - - - S 26 30 14 16 - - -
29/01:30am - - - - - S 26 28 14 15 - - -
29/01:00am - - - - - S 22 26 12 14 - - -
29/12:30am - - - - - S 20 24 11 13 - - -
29/12:00am - - - - - S 20 24 11 13 - - -
 
Date/Time
EDT
Temp
°C
App
Temp
°C
Dew
Point
Rel
Hum
%
Delta-T
°C
Wind Press
QNH
hPa
Press
MSL
hPa
Rain
since 9 am
mm
Dir
 
Spd
km/h
Gust
km/h
Spd
kts
Gust
kts
28/11:30pm - - - - - SSE 20 26 11 14 - - -
28/11:00pm - - - - - SSE 24 30 13 16 - - -
28/10:30pm - - - - - SSE 26 30 14 16 - - -
28/10:00pm - - - - - S 28 33 15 18 - - -
28/09:30pm - - - - - SSE 28 32 15 17 - - -
28/09:00pm - - - - - SSE 32 35 17 19 - - -
28/08:30pm - - - - - SSE 33 37 18 20 - - -
28/08:00pm - - - - - S 33 37 18 20 - - -
28/07:30pm - - - - - S 35 41 19 22 - - -
28/07:00pm - - - - - S 37 41 20 22 - - -
28/06:30pm - - - - - S 35 43 19 23 - - -
28/06:00pm - - - - - S 33 39 18 21 - - -
28/05:30pm - - - - - S 32 35 17 19 - - -
28/05:00pm - - - - - S 28 32 15 17 - - -
28/04:30pm - - - - - S 28 33 15 18 - - -
28/04:00pm - - - - - S 30 35 16 19 - - -
28/03:30pm - - - - - S 30 35 16 19 - - -
28/03:00pm - - - - - SSW 30 35 16 19 - - -
28/02:30pm - - - - - SSW 28 32 15 17 - - -
28/02:00pm - - - - - SSW 26 30 14 16 - - -
28/01:30pm - - - - - SSW 24 28 13 15 - - -
28/01:00pm - - - - - SSW 26 30 14 16 - - -
28/12:30pm - - - - - SSW 28 32 15 17 - - -
28/12:00pm - - - - - SSW 22 30 12 16 - - -
28/11:30am - - - - - SW 17 26 9 14 - - -
28/11:00am - - - - - W 9 11 5 6 - - -
28/10:30am - - - - - SW 6 11 3 6 - - -
28/10:00am - - - - - S 6 7 3 4 - - -
28/09:30am - - - - - SSW 6 11 3 6 - - -
28/09:00am - - - - - S 15 19 8 10 - - -
28/08:30am - - - - - SSE 15 19 8 10 - - -
28/08:00am - - - - - S 17 22 9 12 - - -
28/07:30am - - - - - S 19 22 10 12 - - -
28/07:00am - - - - - S 20 26 11 14 - - -
28/06:30am - - - - - S 22 26 12 14 - - -
28/06:00am - - - - - S 20 26 11 14 - - -
28/05:30am - - - - - S 20 24 11 13 - - -
28/05:00am - - - - - S 24 28 13 15 - - -
28/04:30am - - - - - SSE 24 28 13 15 - - -
28/04:00am - - - - - SSE 26 30 14 16 - - -
28/03:30am - - - - - S 22 30 12 16 - - -
28/03:00am - - - - - SSE 22 28 12 15 - - -
28/02:30am - - - - - SSE 24 30 13 16 - - -
28/02:00am - - - - - SSE 20 26 11 14 - - -
28/01:30am - - - - - SSE 17 20 9 11 - - -
28/01:00am - - - - - SSE 17 19 9 10 - - -
28/12:30am - - - - - SSE 20 30 11 16 - - -
28/12:00am - - - - - S 19 24 10 13 - - -
 
Date/Time
EDT
Temp
°C
App
Temp
°C
Dew
Point
Rel
Hum
%
Delta-T
°C
Wind Press
QNH
hPa
Press
MSL
hPa
Rain
since 9 am
mm
Dir
 
Spd
km/h
Gust
km/h
Spd
kts
Gust
kts
27/11:30pm - - - - - S 19 24 10 13 - - -
27/11:00pm - - - - - S 24 30 13 16 - - -
27/10:30pm - - - - - S 20 28 11 15 - - -
27/10:00pm - - - - - S 19 26 10 14 - - -
27/09:30pm - - - - - SSE 20 26 11 14 - - -
27/09:00pm - - - - - S 28 35 15 19 - - -
27/08:30pm - - - - - S 28 32 15 17 - - -
27/08:00pm - - - - - S 30 37 16 20 - - -
27/07:30pm - - - - - S 32 35 17 19 - - -
27/07:00pm - - - - - S 28 37 15 20 - - -
27/06:30pm - - - - - S 30 35 16 19 - - -
27/06:00pm - - - - - S 32 37 17 20 - - -
27/05:30pm - - - - - S 30 37 16 20 - - -
27/05:00pm - - - - - S 30 37 16 20 - - -
27/04:30pm - - - - - S 32 37 17 20 - - -
27/04:00pm - - - - - S 28 35 15 19 - - -
27/03:30pm - - - - - S 33 39 18 21 - - -
27/03:00pm - - - - - SSW 30 37 16 20 - - -
27/02:30pm - - - - - S 30 35 16 19 - - -
27/02:00pm - - - - - S 28 37 15 20 - - -
27/01:30pm - - - - - S 28 35 15 19 - - -
27/01:00pm - - - - - S 28 37 15 20 - - -
27/12:30pm - - - - - S 28 33 15 18 - - -
27/12:00pm - - - - - S 24 33 13 18 - - -
27/11:30am - - - - - S 24 32 13 17 - - -
27/11:00am - - - - - S 26 33 14 18 - - -
27/10:30am - - - - - S 28 33 15 18 - - -
27/10:00am - - - - - S 22 30 12 16 - - -
27/09:30am - - - - - SSE 19 28 10 15 - - -
27/09:00am - - - - - S 24 32 13 17 - - -
27/08:30am - - - - - S 20 32 11 17 - - -
27/08:00am - - - - - SSE 22 30 12 16 - - -
27/07:30am - - - - - S 20 30 11 16 - - -
27/07:00am - - - - - SSE 19 24 10 13 - - -
27/06:30am - - - - - S 28 33 15 18 - - -
27/06:00am - - - - - S 26 30 14 16 - - -
27/05:30am - - - - - SSE 17 20 9 11 - - -
27/05:00am - - - - - S 24 30 13 16 - - -
27/04:30am - - - - - SSW 20 28 11 15 - - -
27/04:00am - - - - - S 24 30 13 16 - - -
27/03:30am - - - - - S 28 33 15 18 - - -
27/03:00am - - - - - S 24 30 13 16 - - -
27/02:30am - - - - - S 19 30 10 16 - - -
27/02:00am - - - - - S 26 33 14 18 - - -
27/01:30am - - - - - S 20 30 11 16 - - -
27/01:00am - - - - - SSW 28 33 15 18 - - -
27/12:30am - - - - - S 24 32 13 17 - - -
27/12:00am - - - - - S 24 32 13 17 - - -
 
Date/Time
EDT
Temp
°C
App
Temp
°C
Dew
Point
Rel
Hum
%
Delta-T
°C
Wind Press
QNH
hPa
Press
MSL
hPa
Rain
since 9 am
mm
Dir
 
Spd
km/h
Gust
km/h
Spd
kts
Gust
kts
26/11:30pm - - - - - S 28 33 15 18 - - -
26/11:00pm - - - - - SSW 30 37 16 20 - - -
26/10:30pm - - - - - SSW 26 32 14 17 - - -
26/10:00pm - - - - - SSW 35 43 19 23 - - -
26/09:30pm - - - - - SSW 35 43 19 23 - - -
26/09:00pm - - - - - SSW 39 48 21 26 - - -
26/08:30pm - - - - - SSW 35 41 19 22 - - -
26/08:00pm - - - - - S 39 48 21 26 - - -
26/07:30pm - - - - - S 39 46 21 25 - - -
26/07:00pm - - - - - S 39 48 21 26 - - -
26/06:30pm - - - - - SSW 37 43 20 23 - - -
26/06:00pm - - - - - S 33 39 18 21 - - -
26/05:30pm - - - - - SSW 33 39 18 21 - - -
26/05:00pm - - - - - SSW 35 41 19 22 - - -
26/04:30pm - - - - - SSW 33 44 18 24 - - -
26/04:00pm - - - - - SSW 30 35 16 19 - - -

Other Formats:

Comma delimited format used in spreadsheet applications
http://www.bom.gov.au/fwo/IDV60801/IDV60801.94853.axf

JavaScript Object Notation format (JSON) in row-major order
http://www.bom.gov.au/fwo/IDV60801/IDV60801.94853.json